Time;durP1;ratioP1;P1;durP2;ratioP2;P2;SDS_P1;SDS_P2;PMS_P1;PMS_P2;Temp;Humidity;BMP_temperature;BMP_pressure;BME280_temperature;BME280_humidity;BME280_pressure;Samples;Min_cycle;Max_cycle;Signal;HPM_P1;HPM_P2
2020/12/03 00:02:13;;;;;;;27.10;16.95;;;2.70;77.10;;;;;;6211824;23;20247;-79
2020/12/03 00:04:40;;;;;;;33.55;18.15;;;2.70;76.60;;;;;;6210963;23;20174;-80
2020/12/03 00:07:07;;;;;;;31.40;17.17;;;2.70;76.50;;;;;;6209963;23;20168;-80
2020/12/03 00:09:33;;;;;;;28.73;17.45;;;2.70;76.60;;;;;;6209908;23;20186;-80
2020/12/03 00:12:01;;;;;;;35.00;17.17;;;2.70;75.90;;;;;;6210061;23;20222;-80
2020/12/03 00:14:27;;;;;;;33.70;17.90;;;2.80;76.10;;;;;;6202421;23;20176;-79
2020/12/03 00:16:54;;;;;;;33.30;16.92;;;2.80;75.80;;;;;;6204669;23;20197;-80
2020/12/03 00:19:24;;;;;;;32.40;17.67;;;2.70;76.60;;;;;;6208083;23;20210;-80
2020/12/03 00:21:53;;;;;;;31.80;17.95;;;2.70;77.60;;;;;;6207744;23;20218;-79
2020/12/03 00:24:22;;;;;;;36.88;19.25;;;2.60;78.30;;;;;;6206294;23;20191;-79
2020/12/03 00:26:49;;;;;;;32.47;19.00;;;2.60;79.40;;;;;;6198838;23;20183;-79
2020/12/03 00:29:16;;;;;;;31.77;17.83;;;2.60;79.40;;;;;;6196817;23;20179;-79
2020/12/03 00:31:43;;;;;;;40.33;19.38;;;2.60;79.40;;;;;;6195834;23;20207;-80
2020/12/03 00:34:11;;;;;;;33.80;17.83;;;2.50;79.30;;;;;;6199421;23;20182;-80
2020/12/03 00:36:39;;;;;;;29.30;17.80;;;2.60;79.40;;;;;;6193655;23;20194;-79
2020/12/03 00:39:09;;;;;;;30.77;17.27;;;2.60;79.40;;;;;;6195394;23;20214;-80
2020/12/03 00:41:35;;;;;;;33.38;17.77;;;2.60;79.40;;;;;;6194828;23;20280;-80
2020/12/03 00:44:02;;;;;;;33.47;17.42;;;2.50;79.30;;;;;;6192881;23;20183;-80
2020/12/03 00:46:29;;;;;;;38.20;19.35;;;2.50;79.40;;;;;;6195861;23;20241;-80
2020/12/03 00:48:56;;;;;;;34.03;18.48;;;2.50;79.40;;;;;;6198510;23;20179;-80
2020/12/03 00:51:23;;;;;;;34.88;21.58;;;2.50;80.00;;;;;;6195747;23;20242;-80
2020/12/03 00:53:50;;;;;;;31.65;18.83;;;2.50;79.60;;;;;;6194352;23;20187;-79
2020/12/03 00:56:18;;;;;;;34.30;19.58;;;2.50;80.20;;;;;;6198782;23;20187;-79
2020/12/03 00:58:44;;;;;;;37.00;19.63;;;2.50;80.20;;;;;;6207864;23;20187;-79
2020/12/03 01:01:12;;;;;;;39.58;19.63;;;2.50;79.70;;;;;;6208083;23;20213;-81
2020/12/03 01:03:38;;;;;;;36.15;19.42;;;2.40;80.40;;;;;;6207752;23;20202;-79
2020/12/03 01:06:05;;;;;;;35.33;19.67;;;2.50;80.50;;;;;;6210932;23;20194;-79
2020/12/03 01:08:31;;;;;;;32.22;19.75;;;2.40;80.90;;;;;;6201912;23;20179;-79
2020/12/03 01:10:59;;;;;;;38.15;20.50;;;2.40;81.30;;;;;;6212066;23;20191;-79
2020/12/03 01:13:26;;;;;;;31.25;17.23;;;2.50;81.50;;;;;;6213600;23;20178;-80
2020/12/03 01:15:53;;;;;;;26.55;16.20;;;2.40;81.90;;;;;;6207357;23;20258;-80
2020/12/03 01:18:20;;;;;;;32.15;18.00;;;2.40;82.00;;;;;;6192912;23;20231;-79
2020/12/03 01:20:46;;;;;;;32.13;18.90;;;2.50;81.70;;;;;;6193531;23;20227;-79
2020/12/03 01:23:13;;;;;;;30.92;17.13;;;2.40;81.90;;;;;;6191076;23;20179;-81
2020/12/03 01:25:39;;;;;;;27.52;16.77;;;2.40;82.40;;;;;;6193047;23;20192;-80
2020/12/03 01:28:06;;;;;;;27.80;16.95;;;2.40;82.80;;;;;;6203129;23;20206;-79
2020/12/03 01:30:33;;;;;;;29.27;17.83;;;2.30;83.30;;;;;;6193183;23;20230;-79
2020/12/03 01:32:59;;;;;;;23.67;14.27;;;2.40;83.40;;;;;;6192763;23;20199;-79
2020/12/03 01:35:25;;;;;;;22.65;13.13;;;2.30;82.70;;;;;;6193394;23;20183;-78
2020/12/03 01:37:53;;;;;;;21.33;14.32;;;2.20;83.20;;;;;;6199261;23;20234;-79
2020/12/03 01:40:23;;;;;;;22.58;12.52;;;2.20;83.20;;;;;;6186536;23;20199;-78
2020/12/03 01:42:50;;;;;;;20.70;12.25;;;2.20;83.70;;;;;;6185636;23;20238;-77
2020/12/03 01:45:51;;;;;;;23.27;12.57;;;2.20;84.60;;;;;;6185149;23;20250;-78
2020/12/03 01:48:44;;;;;;;19.00;11.90;;;2.10;83.70;;;;;;6189463;23;20641;-78
2020/12/03 01:51:15;;;;;;;22.42;11.95;;;2.10;84.50;;;;;;6163834;23;20214;-78
2020/12/03 01:53:42;;;;;;;18.67;10.70;;;2.10;85.00;;;;;;6192624;23;20179;-78
2020/12/03 01:56:53;;;;;;;20.63;11.75;;;2.10;84.90;;;;;;6185005;23;20183;-79
2020/12/03 01:59:21;;;;;;;19.25;11.30;;;2.10;85.30;;;;;;6190997;23;20271;-78
2020/12/03 02:01:49;;;;;;;21.77;12.95;;;2.10;85.40;;;;;;6193686;23;20195;-79
2020/12/03 02:04:15;;;;;;;20.90;12.77;;;2.20;85.80;;;;;;6191648;23;20183;-80
2020/12/03 02:06:42;;;;;;;21.90;11.60;;;2.20;85.30;;;;;;6187819;23;20179;-78
2020/12/03 02:09:11;;;;;;;19.63;12.63;;;2.20;85.20;;;;;;6188073;23;20218;-79
2020/12/03 02:11:38;;;;;;;19.70;12.25;;;2.30;85.60;;;;;;6187947;23;20238;-78
2020/12/03 02:14:06;;;;;;;22.27;12.65;;;2.30;85.30;;;;;;6188585;23;20214;-78
2020/12/03 02:16:35;;;;;;;20.63;12.57;;;2.30;84.60;;;;;;6189067;23;20175;-77
2020/12/03 02:19:04;;;;;;;19.70;12.82;;;2.30;84.10;;;;;;6189704;23;20267;-78
2020/12/03 02:21:31;;;;;;;20.50;12.82;;;2.30;84.40;;;;;;6190348;23;20306;-78
2020/12/03 02:23:57;;;;;;;23.38;13.05;;;2.30;83.90;;;;;;6190541;23;20203;-79
2020/12/03 02:26:23;;;;;;;20.45;12.90;;;2.30;83.50;;;;;;6186660;23;20258;-78
2020/12/03 02:28:50;;;;;;;21.92;13.55;;;2.30;83.30;;;;;;6187067;23;20270;-78
2020/12/03 02:31:18;;;;;;;20.38;13.52;;;2.30;83.50;;;;;;6186848;23;20208;-78
2020/12/03 02:33:44;;;;;;;18.05;12.48;;;2.30;83.80;;;;;;6194867;23;20213;-77
2020/12/03 02:36:14;;;;;;;18.25;12.48;;;2.30;83.90;;;;;;6197925;23;20203;-78
2020/12/03 02:38:41;;;;;;;23.20;13.55;;;2.20;83.90;;;;;;6205079;23;20261;-78
2020/12/03 02:41:09;;;;;;;20.73;11.75;;;2.20;84.10;;;;;;6198413;23;20209;-79
2020/12/03 02:43:37;;;;;;;18.70;12.63;;;2.20;84.60;;;;;;6208782;23;20230;-79
2020/12/03 02:46:04;;;;;;;24.75;13.95;;;2.20;84.90;;;;;;6194265;23;20183;-78
2020/12/03 02:48:30;;;;;;;21.88;14.45;;;2.20;85.40;;;;;;6191718;23;20206;-77
2020/12/03 02:50:57;;;;;;;23.73;13.73;;;2.30;85.20;;;;;;6189509;23;20206;-78
2020/12/03 02:53:24;;;;;;;20.25;13.77;;;2.30;86.00;;;;;;6190280;23;20665;-77
2020/12/03 02:55:51;;;;;;;24.17;14.48;;;2.40;85.30;;;;;;6193217;23;20180;-78
2020/12/03 02:58:18;;;;;;;24.50;13.82;;;2.40;84.80;;;;;;6202631;23;20199;-77
2020/12/03 03:00:44;;;;;;;24.55;13.95;;;2.30;84.40;;;;;;6204974;23;20191;-78
2020/12/03 03:03:10;;;;;;;24.10;13.57;;;2.30;84.50;;;;;;6201324;23;20182;-78
2020/12/03 03:05:37;;;;;;;23.67;13.95;;;2.30;84.80;;;;;;6206684;23;20178;-80
2020/12/03 03:08:03;;;;;;;22.63;13.32;;;2.40;84.70;;;;;;6213247;23;20169;-79
2020/12/03 03:10:30;;;;;;;29.15;15.55;;;2.40;84.30;;;;;;6212840;23;20211;-80
2020/12/03 03:12:57;;;;;;;26.75;15.23;;;2.30;84.00;;;;;;6212470;23;20186;-80
2020/12/03 03:15:23;;;;;;;26.08;14.98;;;2.20;84.50;;;;;;6210712;23;20169;-78
2020/12/03 03:17:50;;;;;;;27.20;15.65;;;2.20;85.60;;;;;;6207184;23;20236;-78
2020/12/03 03:20:16;;;;;;;23.20;14.93;;;2.20;86.10;;;;;;6211152;23;20191;-80
2020/12/03 03:22:43;;;;;;;28.65;16.50;;;2.20;86.10;;;;;;6212188;23;20167;-80
2020/12/03 03:25:10;;;;;;;27.85;16.38;;;2.20;86.00;;;;;;6211038;23;20229;-81
2020/12/03 03:27:36;;;;;;;25.38;14.82;;;2.30;86.30;;;;;;6211280;23;20226;-80
2020/12/03 03:30:04;;;;;;;30.42;17.42;;;2.20;86.30;;;;;;6210764;23;20187;-81
2020/12/03 03:32:31;;;;;;;29.38;15.45;;;2.20;86.00;;;;;;6210219;23;20246;-79
2020/12/03 03:34:57;;;;;;;31.23;17.02;;;2.20;85.90;;;;;;6193890;23;20464;-77
2020/12/03 03:37:23;;;;;;;28.75;15.95;;;2.20;86.10;;;;;;6184903;23;20602;-78
2020/12/03 03:39:50;;;;;;;29.30;16.60;;;2.10;86.60;;;;;;6184746;23;20203;-78
2020/12/03 03:42:16;;;;;;;27.08;16.63;;;2.10;87.20;;;;;;6185292;23;20175;-77
2020/12/03 03:44:43;;;;;;;31.13;18.65;;;2.10;87.20;;;;;;6184407;23;20259;-79
2020/12/03 03:47:10;;;;;;;28.40;16.10;;;2.10;87.80;;;;;;6184543;23;20206;-78
2020/12/03 03:49:36;;;;;;;26.60;16.08;;;2.10;87.20;;;;;;6185010;23;20207;-78
2020/12/03 03:52:03;;;;;;;29.00;17.75;;;2.20;87.40;;;;;;6185239;23;20255;-78
2020/12/03 03:54:29;;;;;;;31.52;17.92;;;2.20;87.30;;;;;;6186316;23;20551;-77
2020/12/03 03:56:56;;;;;;;30.42;17.20;;;2.20;87.30;;;;;;6184208;23;20179;-78
2020/12/03 03:59:22;;;;;;;28.30;16.35;;;2.10;87.90;;;;;;6185021;23;20203;-79
2020/12/03 04:01:49;;;;;;;29.98;17.48;;;2.10;88.40;;;;;;6184658;23;20203;-77
2020/12/03 04:04:16;;;;;;;32.78;19.20;;;2.20;88.70;;;;;;6186506;23;20249;-78
2020/12/03 04:06:42;;;;;;;32.13;17.63;;;2.20;88.20;;;;;;6184904;23;20183;-78
2020/12/03 04:09:09;;;;;;;27.95;17.48;;;2.20;87.90;;;;;;6185445;23;20585;-78
2020/12/03 04:11:35;;;;;;;29.75;16.30;;;2.10;88.80;;;;;;6185919;23;20207;-78
2020/12/03 04:14:02;;;;;;;29.98;18.10;;;2.10;89.50;;;;;;6201086;23;20163;-79
2020/12/03 04:16:28;;;;;;;31.75;18.98;;;2.10;90.00;;;;;;6209283;23;20210;-78
2020/12/03 04:18:54;;;;;;;31.02;17.17;;;2.30;90.00;;;;;;6190037;23;20222;-79
2020/12/03 04:21:22;;;;;;;29.65;18.45;;;2.20;89.20;;;;;;6211025;23;20191;-81
2020/12/03 04:23:48;;;;;;;34.63;19.13;;;2.20;90.00;;;;;;6210228;23;20179;-78
2020/12/03 04:26:14;;;;;;;34.00;18.15;;;2.20;89.00;;;;;;6186968;23;20258;-78
2020/12/03 04:28:41;;;;;;;33.90;19.17;;;2.30;89.00;;;;;;6184675;23;20215;-78
2020/12/03 04:31:08;;;;;;;32.10;18.55;;;2.30;88.70;;;;;;6184429;23;20280;-79
2020/12/03 04:33:35;;;;;;;33.63;19.95;;;2.30;87.30;;;;;;6184444;23;20215;-78
2020/12/03 04:36:02;;;;;;;33.35;19.63;;;2.30;87.30;;;;;;6185650;23;20258;-78
2020/12/03 04:38:30;;;;;;;36.47;19.85;;;2.30;87.80;;;;;;6184268;23;20226;-79
2020/12/03 04:40:56;;;;;;;34.00;18.92;;;2.40;87.50;;;;;;6184930;23;20216;-79
2020/12/03 04:43:30;;;;;;;31.70;17.75;;;2.40;87.40;;;;;;6183949;23;20218;-78
2020/12/03 04:46:06;;;;;;;36.85;19.02;;;2.50;87.50;;;;;;6183926;23;20195;-78
2020/12/03 04:48:57;;;;;;;33.90;19.85;;;2.50;86.70;;;;;;6184438;23;20622;-78
2020/12/03 04:52:02;;;;;;;34.08;18.40;;;2.30;86.00;;;;;;6184620;23;20688;-78
2020/12/03 04:54:35;;;;;;;35.63;19.33;;;2.30;87.30;;;;;;6195613;23;20174;-79
2020/12/03 04:57:20;;;;;;;37.13;21.40;;;2.30;87.30;;;;;;6206592;23;20168;-77
2020/12/03 04:59:56;;;;;;;32.70;19.33;;;2.30;87.30;;;;;;6212391;23;20293;-80
2020/12/03 05:03:04;;;;;;;35.78;20.25;;;2.30;87.30;;;;;;6212520;23;20162;-78
2020/12/03 05:05:38;;;;;;;34.75;19.23;;;2.30;87.70;;;;;;6180027;23;20219;-78
2020/12/03 05:08:09;;;;;;;36.13;19.17;;;2.30;87.30;;;;;;6194552;23;20181;-78
2020/12/03 05:10:40;;;;;;;33.92;19.15;;;2.30;87.30;;;;;;6188151;23;20203;-78
2020/12/03 05:13:18;;;;;;;33.67;19.92;;;2.20;87.60;;;;;;6198036;23;20190;-77
2020/12/03 05:15:44;;;;;;;33.53;19.35;;;2.20;88.30;;;;;;6211550;23;20171;-79
2020/12/03 05:18:30;;;;;;;39.85;20.85;;;2.20;89.00;;;;;;6211071;23;20230;-80
2020/12/03 05:20:57;;;;;;;35.58;19.92;;;2.20;88.80;;;;;;6212627;23;20226;-81
2020/12/03 05:23:27;;;;;;;40.65;22.25;;;2.20;89.30;;;;;;6200978;23;20183;-78
2020/12/03 05:25:56;;;;;;;35.35;20.52;;;2.30;89.40;;;;;;6192338;23;20187;-80
2020/12/03 05:28:54;;;;;;;41.33;22.60;;;2.40;89.80;;;;;;6188091;23;20179;-77
2020/12/03 05:31:29;;;;;;;36.22;21.55;;;2.40;88.60;;;;;;6186553;23;20214;-78
2020/12/03 05:34:00;;;;;;;36.90;20.15;;;2.40;87.80;;;;;;6185979;23;20514;-78
2020/12/03 05:36:30;;;;;;;34.78;19.92;;;2.40;87.50;;;;;;6186131;23;20206;-77
2020/12/03 05:38:58;;;;;;;34.85;19.80;;;2.40;87.40;;;;;;6186247;23;20221;-78
2020/12/03 05:41:28;;;;;;;36.58;20.38;;;2.40;87.40;;;;;;6185836;23;20199;-77
2020/12/03 05:43:54;;;;;;;37.72;21.35;;;2.40;87.40;;;;;;6186423;23;20198;-78
2020/12/03 05:46:23;;;;;;;37.42;20.25;;;2.40;87.40;;;;;;6194236;23;20187;-78
2020/12/03 05:48:58;;;;;;;37.13;20.30;;;2.40;87.40;;;;;;6187346;23;20202;-78
2020/12/03 05:51:27;;;;;;;32.28;19.77;;;2.50;87.50;;;;;;6187940;23;20206;-80
2020/12/03 05:53:56;;;;;;;34.88;20.85;;;2.40;87.40;;;;;;6186838;23;20570;-78
2020/12/03 05:56:25;;;;;;;35.20;19.25;;;2.40;87.40;;;;;;6185921;23;20519;-77
2020/12/03 05:58:52;;;;;;;41.33;20.35;;;2.50;87.50;;;;;;6186502;23;20195;-77
2020/12/03 06:01:20;;;;;;;37.00;21.42;;;2.50;87.30;;;;;;6192206;23;20207;-78
2020/12/03 06:04:07;;;;;;;37.30;20.85;;;2.50;86.60;;;;;;6191903;23;20457;-78
2020/12/03 06:07:31;;;;;;;38.45;19.75;;;2.50;87.40;;;;;;6192173;23;20191;-78
2020/12/03 06:10:17;;;;;;;33.28;19.70;;;2.50;87.60;;;;;;6192351;23;20218;-78
2020/12/03 06:13:01;;;;;;;37.83;18.73;;;2.40;86.20;;;;;;6188848;23;20175;-79
2020/12/03 06:15:48;;;;;;;33.47;19.60;;;2.40;86.10;;;;;;6189789;23;20542;-79
2020/12/03 06:18:34;;;;;;;32.45;19.73;;;2.40;86.70;;;;;;6189483;23;20229;-78
2020/12/03 06:21:29;;;;;;;37.97;21.30;;;2.40;87.40;;;;;;6188831;23;20669;-79
2020/12/03 06:24:08;;;;;;;43.42;21.23;;;2.50;87.50;;;;;;6189464;23;20164;-78
2020/12/03 06:27:04;;;;;;;41.95;21.35;;;2.40;87.40;;;;;;6190152;23;20168;-80
2020/12/03 06:29:50;;;;;;;37.85;20.65;;;2.50;87.50;;;;;;6188305;23;20164;-78
2020/12/03 06:32:45;;;;;;;31.13;18.33;;;2.50;87.50;;;;;;6188499;23;20174;-79
2020/12/03 06:35:27;;;;;;;34.45;20.58;;;2.60;87.60;;;;;;6189065;23;20533;-79
2020/12/03 06:38:02;;;;;;;35.88;19.77;;;2.60;86.70;;;;;;6187970;23;20168;-79
2020/12/03 06:40:34;;;;;;;41.25;18.63;;;2.60;86.30;;;;;;6186667;23;20836;-78
2020/12/03 06:43:10;;;;;;;35.90;20.23;;;2.60;85.90;;;;;;6187676;23;20171;-79
2020/12/03 06:45:46;;;;;;;63.08;19.40;;;2.60;85.80;;;;;;6193790;23;20210;-79
2020/12/03 06:48:38;;;;;;;34.90;19.25;;;2.60;85.60;;;;;;6202312;23;20167;-81
2020/12/03 06:51:37;;;;;;;45.92;20.80;;;2.60;85.80;;;;;;6210654;23;20187;-78
2020/12/03 06:54:29;;;;;;;37.95;19.60;;;2.70;85.60;;;;;;6196560;23;20479;-77
2020/12/03 06:57:20;;;;;;;37.22;18.58;;;2.70;85.40;;;;;;6187195;23;20198;-77
2020/12/03 07:00:19;;;;;;;38.85;22.00;;;2.70;84.80;;;;;;6185063;23;20184;-77
2020/12/03 07:03:30;;;;;;;38.47;21.45;;;2.70;84.40;;;;;;6125581;23;20274;-77
2020/12/03 07:06:42;;;;;;;33.55;20.10;;;2.60;84.30;;;;;;6188103;23;20262;-76
2020/12/03 07:09:58;;;;;;;35.97;19.90;;;2.50;84.60;;;;;;6208867;23;20211;-77
2020/12/03 07:13:01;;;;;;;39.22;20.02;;;2.60;85.00;;;;;;6201902;23;20262;-76
2020/12/03 07:15:44;;;;;;;38.40;19.75;;;2.60;85.20;;;;;;6210287;23;20195;-77
2020/12/03 07:18:43;;;;;;;36.55;20.52;;;2.60;85.10;;;;;;6209480;23;20177;-78
2020/12/03 07:21:46;;;;;;;36.85;20.38;;;2.60;85.00;;;;;;6207860;23;20203;-77
2020/12/03 07:24:18;;;;;;;34.40;19.33;;;2.60;85.10;;;;;;6208684;23;20181;-77
2020/12/03 07:27:07;;;;;;;36.33;19.70;;;2.60;85.60;;;;;;6201033;23;20167;-77
2020/12/03 07:29:46;;;;;;;34.72;17.80;;;2.70;85.50;;;;;;6205579;23;20463;-76
2020/12/03 07:32:42;;;;;;;38.78;20.98;;;2.70;85.10;;;;;;6209193;23;20168;-78
2020/12/03 07:35:25;;;;;;;43.03;20.77;;;2.70;84.80;;;;;;6210591;23;20163;-77
2020/12/03 07:38:01;;;;;;;34.28;21.20;;;2.70;84.70;;;;;;6210854;23;20163;-76
2020/12/03 07:40:30;;;;;;;34.35;19.48;;;2.80;84.30;;;;;;6209772;23;20216;-77
2020/12/03 07:43:01;;;;;;;32.30;17.98;;;2.80;83.70;;;;;;6210679;23;20167;-77
2020/12/03 07:45:43;;;;;;;34.47;18.52;;;2.90;83.60;;;;;;6209036;23;20164;-78
2020/12/03 07:48:15;;;;;;;38.28;20.33;;;2.80;82.50;;;;;;6205202;23;20181;-78
2020/12/03 07:51:07;;;;;;;29.65;17.95;;;2.80;82.50;;;;;;6199628;23;20195;-80
2020/12/03 07:53:34;;;;;;;33.67;18.30;;;2.90;83.00;;;;;;6193015;23;20198;-77
2020/12/03 07:56:31;;;;;;;40.78;18.98;;;2.90;83.00;;;;;;6194743;23;20206;-80
2020/12/03 07:59:34;;;;;;;38.80;20.50;;;2.90;81.80;;;;;;6210646;23;20275;-79
2020/12/03 08:02:02;;;;;;;31.20;18.75;;;3.00;82.00;;;;;;6211316;23;20152;-77
2020/12/03 08:04:39;;;;;;;31.75;18.35;;;3.00;81.20;;;;;;6209537;23;20367;-79
2020/12/03 08:09:59;;;;;;;39.03;19.17;;;2.90;80.80;;;;;;5134171;27;20525;-78
2020/12/03 08:12:28;;;;;;;33.85;18.98;;;2.90;80.60;;;;;;5132223;28;20199;-79
2020/12/03 08:14:55;;;;;;;29.42;17.73;;;2.90;80.90;;;;;;5127982;28;20211;-78
2020/12/03 08:17:45;;;;;;;30.58;18.23;;;2.90;81.00;;;;;;5115914;28;20197;-80
2020/12/03 08:20:21;;;;;;;34.05;18.38;;;3.00;81.50;;;;;;5112679;28;20229;-77
2020/12/03 08:22:50;;;;;;;33.60;18.48;;;3.10;80.80;;;;;;5114650;28;20208;-77
2020/12/03 08:25:21;;;;;;;33.35;17.65;;;3.20;79.90;;;;;;5115163;28;20274;-80
2020/12/03 08:27:52;;;;;;;31.05;18.58;;;3.20;79.90;;;;;;5115556;28;20192;-78
2020/12/03 08:30:37;;;;;;;31.05;18.05;;;3.20;79.50;;;;;;5120723;28;20225;-78
2020/12/03 08:33:14;;;;;;;30.35;18.10;;;3.40;78.50;;;;;;5106329;28;20208;-79
2020/12/03 08:35:48;;;;;;;31.77;17.10;;;3.50;77.30;;;;;;5122447;28;20200;-78
2020/12/03 08:38:14;;;;;;;29.38;16.27;;;3.50;76.00;;;;;;5116983;28;20206;-78
2020/12/03 08:40:41;;;;;;;29.50;15.63;;;3.40;74.90;;;;;;5130436;28;20248;-78
2020/12/03 08:43:10;;;;;;;27.85;15.63;;;3.40;74.70;;;;;;5129669;28;20188;-78
2020/12/03 08:45:46;;;;;;;29.05;16.05;;;3.50;74.20;;;;;;5117610;28;20193;-78
2020/12/03 08:48:23;;;;;;;28.88;16.65;;;3.70;73.30;;;;;;5123043;28;20230;-77
2020/12/03 08:50:56;;;;;;;24.63;14.50;;;3.60;71.80;;;;;;5115234;28;20205;-78
2020/12/03 08:53:23;;;;;;;22.33;14.60;;;3.70;71.00;;;;;;5105601;28;20190;-78
2020/12/03 08:55:49;;;;;;;27.77;14.23;;;3.70;69.30;;;;;;5102330;28;20293;-76
2020/12/03 08:58:20;;;;;;;26.10;16.15;;;3.80;69.20;;;;;;5091991;28;20221;-74
2020/12/03 09:00:49;;;;;;;24.80;14.15;;;3.80;68.40;;;;;;5091913;28;20226;-77
2020/12/03 09:03:17;;;;;;;23.23;13.50;;;3.80;67.90;;;;;;5102144;28;20233;-76
2020/12/03 09:05:44;;;;;;;20.08;12.95;;;3.90;67.20;;;;;;5105673;28;20256;-77
2020/12/03 09:08:18;;;;;;;24.83;12.95;;;4.00;66.40;;;;;;5098926;28;20230;-76
2020/12/03 09:10:46;;;;;;;17.02;11.38;;;4.00;65.80;;;;;;5103798;28;20593;-77
2020/12/03 09:13:18;;;;;;;23.27;12.05;;;4.00;64.50;;;;;;5089942;28;20346;-76
2020/12/03 09:15:47;;;;;;;17.08;10.75;;;4.00;63.50;;;;;;5094952;28;20229;-76
2020/12/03 09:18:14;;;;;;;18.67;10.82;;;3.90;63.40;;;;;;5092757;28;20580;-76
2020/12/03 09:20:45;;;;;;;19.48;10.85;;;3.90;63.40;;;;;;5100671;28;20247;-76
2020/12/03 09:23:17;;;;;;;18.67;11.55;;;3.90;63.40;;;;;;5105088;28;20659;-77
2020/12/03 09:25:43;;;;;;;17.23;10.60;;;4.00;63.50;;;;;;5081714;28;20202;-76
2020/12/03 09:28:10;;;;;;;17.63;10.20;;;4.10;63.50;;;;;;5077379;28;20691;-77
2020/12/03 09:30:41;;;;;;;18.58;11.60;;;4.20;63.60;;;;;;5095699;28;20274;-75
2020/12/03 09:33:13;;;;;;;17.73;10.60;;;4.20;62.80;;;;;;5093528;28;20201;-78
2020/12/03 09:35:42;;;;;;;18.52;10.65;;;4.20;62.70;;;;;;5085660;28;20216;-76
2020/12/03 09:38:10;;;;;;;20.15;12.15;;;4.20;62.40;;;;;;5094664;28;20293;-74
2020/12/03 09:40:37;;;;;;;24.33;12.85;;;4.30;62.50;;;;;;5082817;28;20225;-75
2020/12/03 09:43:05;;;;;;;25.05;11.32;;;4.30;61.00;;;;;;5084396;28;20201;-75
2020/12/03 09:45:36;;;;;;;18.70;10.25;;;4.30;61.40;;;;;;5087000;28;20206;-76
2020/12/03 09:48:04;;;;;;;18.48;11.57;;;4.40;60.80;;;;;;5087412;28;20210;-76
2020/12/03 09:50:31;;;;;;;19.95;11.60;;;4.50;60.70;;;;;;5088428;28;20238;-76
2020/12/03 09:52:58;;;;;;;16.65;10.88;;;4.50;60.00;;;;;;5093913;28;20207;-75
2020/12/03 09:55:25;;;;;;;18.10;11.15;;;4.70;60.00;;;;;;5095584;28;20206;-74
2020/12/03 09:57:54;;;;;;;14.30;10.02;;;4.80;59.10;;;;;;5098527;28;20205;-74
2020/12/03 10:00:26;;;;;;;15.80;9.80;;;4.80;58.20;;;;;;5089184;28;20275;-76
2020/12/03 10:03:30;;;;;;;18.30;10.90;;;4.80;57.50;;;;;;5087619;28;20601;-77
2020/12/03 10:06:12;;;;;;;29.67;12.98;;;4.80;57.10;;;;;;5046422;28;20230;-76
2020/12/03 10:08:58;;;;;;;15.00;10.15;;;4.70;56.60;;;;;;5094821;28;20256;-75
2020/12/03 10:12:04;;;;;;;17.13;11.02;;;4.80;56.40;;;;;;5082769;28;20241;-76
2020/12/03 10:14:53;;;;;;;17.90;9.93;;;4.90;55.40;;;;;;5065638;28;20201;-77
2020/12/03 10:17:20;;;;;;;18.48;9.90;;;4.90;55.20;;;;;;5076108;28;20280;-76
2020/12/03 10:19:49;;;;;;;12.48;9.18;;;4.90;55.20;;;;;;5085898;28;20913;-75
2020/12/03 10:22:29;;;;;;;14.60;8.95;;;4.90;55.20;;;;;;5055082;28;20211;-75
2020/12/03 10:25:11;;;;;;;15.18;8.82;;;4.80;54.30;;;;;;5081329;28;20198;-75
2020/12/03 10:27:43;;;;;;;14.23;8.25;;;4.80;53.90;;;;;;5095748;28;20728;-75
2020/12/03 10:30:20;;;;;;;13.57;9.05;;;4.80;53.70;;;;;;5089119;28;20233;-75
2020/12/03 10:32:52;;;;;;;13.27;8.50;;;4.90;53.70;;;;;;5107707;28;20201;-76
2020/12/03 10:35:19;;;;;;;17.33;9.88;;;4.90;53.40;;;;;;5096657;28;20183;-77
2020/12/03 10:37:51;;;;;;;14.07;8.80;;;5.00;53.20;;;;;;5100274;28;20210;-77
2020/12/03 10:40:19;;;;;;;12.88;8.40;;;5.00;53.00;;;;;;5093810;28;20252;-75
2020/12/03 10:42:49;;;;;;;11.68;7.90;;;5.10;52.40;;;;;;5090418;28;20237;-76
2020/12/03 10:45:20;;;;;;;9.95;8.25;;;5.10;52.30;;;;;;5082986;28;20203;-76
2020/12/03 10:47:51;;;;;;;13.05;8.80;;;5.20;52.10;;;;;;5081585;28;20218;-75
2020/12/03 10:50:19;;;;;;;16.45;7.80;;;5.30;51.60;;;;;;5077164;28;20222;-74
2020/12/03 10:52:47;;;;;;;8.85;7.20;;;5.30;50.90;;;;;;5076326;28;20653;-77
2020/12/03 10:55:19;;;;;;;13.98;7.25;;;5.20;51.60;;;;;;5075359;28;20207;-75
2020/12/03 10:57:56;;;;;;;11.15;7.65;;;5.10;51.60;;;;;;5075555;28;20285;-77
2020/12/03 11:00:24;;;;;;;9.93;7.25;;;5.20;50.80;;;;;;5074368;28;20613;-76
2020/12/03 11:02:53;;;;;;;11.18;6.70;;;5.10;50.70;;;;;;5074653;28;20210;-76
2020/12/03 11:05:36;;;;;;;13.25;6.65;;;5.10;50.70;;;;;;5074817;28;20292;-75
2020/12/03 11:08:03;;;;;;;10.40;7.20;;;5.20;50.90;;;;;;5075299;28;20313;-74
2020/12/03 11:10:31;;;;;;;11.40;7.22;;;5.40;51.00;;;;;;5075363;28;20265;-75
2020/12/03 11:13:00;;;;;;;17.05;7.22;;;5.30;50.90;;;;;;5075019;28;20895;-76
2020/12/03 11:15:29;;;;;;;10.48;6.80;;;5.30;50.20;;;;;;5074798;28;20260;-76
2020/12/03 11:18:03;;;;;;;8.23;6.80;;;5.50;50.60;;;;;;5074344;28;20202;-75
2020/12/03 11:20:33;;;;;;;10.15;6.53;;;5.60;49.60;;;;;;5079927;28;20232;-75
2020/12/03 11:23:08;;;;;;;7.55;5.53;;;5.50;49.00;;;;;;5074623;28;20214;-77
2020/12/03 11:25:36;;;;;;;6.28;5.10;;;5.60;48.60;;;;;;5074164;28;20212;-76
2020/12/03 11:28:12;;;;;;;7.50;5.43;;;5.60;48.60;;;;;;5074984;28;20919;-76
2020/12/03 11:30:39;;;;;;;10.43;6.05;;;5.80;48.30;;;;;;5074372;28;20283;-76
2020/12/03 11:33:05;;;;;;;7.43;5.57;;;5.90;47.50;;;;;;5074438;28;20238;-78
2020/12/03 11:35:33;;;;;;;6.45;4.97;;;5.90;46.90;;;;;;5076115;28;20297;-76
2020/12/03 11:38:02;;;;;;;8.00;4.70;;;6.00;46.80;;;;;;5080208;28;20219;-77
2020/12/03 11:40:35;;;;;;;11.15;5.00;;;6.00;46.80;;;;;;5078980;28;20273;-75
2020/12/03 11:43:29;;;;;;;5.93;4.03;;;6.10;46.80;;;;;;5075210;28;20218;-77
2020/12/03 11:48:55;;;;;;;7.85;5.43;;;6.10;46.80;;;;;;5056556;28;20210;-76
2020/12/03 11:51:29;;;;;;;7.32;5.25;;;6.30;47.00;;;;;;5074199;28;20231;-77
2020/12/03 11:53:57;;;;;;;7.88;5.10;;;6.40;46.30;;;;;;5074461;28;20234;-77
2020/12/03 11:56:23;;;;;;;4.93;4.40;;;6.50;46.20;;;;;;5073050;28;20649;-77
2020/12/03 11:58:50;;;;;;;7.55;5.30;;;6.60;45.90;;;;;;5073142;28;20258;-79
2020/12/03 12:01:17;;;;;;;9.38;4.88;;;6.50;45.70;;;;;;5076202;28;20230;-78
2020/12/03 12:03:46;;;;;;;6.80;4.57;;;6.40;46.20;;;;;;5076336;28;20207;-78
2020/12/03 12:06:22;;;;;;;4.03;3.63;;;6.50;45.80;;;;;;5075585;28;20210;-79
2020/12/03 12:08:54;;;;;;;4.05;3.42;;;6.50;45.10;;;;;;5077307;28;20233;-78
2020/12/03 12:11:25;;;;;;;10.68;4.07;;;6.50;45.30;;;;;;5075983;28;20255;-76
2020/12/03 12:13:53;;;;;;;3.90;3.20;;;6.60;45.40;;;;;;5067332;28;20330;-77
2020/12/03 12:16:20;;;;;;;4.30;3.00;;;6.60;44.90;;;;;;5059715;28;20204;-77
2020/12/03 12:18:47;;;;;;;3.47;3.10;;;6.50;45.30;;;;;;5056316;28;20218;-77
2020/12/03 12:21:14;;;;;;;6.38;3.72;;;6.50;44.80;;;;;;5075733;28;20230;-77
2020/12/03 12:23:41;;;;;;;3.90;3.35;;;6.60;44.90;;;;;;5076687;28;20215;-77
2020/12/03 12:26:07;;;;;;;4.78;3.55;;;6.60;44.90;;;;;;5075030;28;20207;-77
2020/12/03 12:28:34;;;;;;;5.05;3.40;;;6.50;44.70;;;;;;5075204;28;20268;-76
2020/12/03 12:31:00;;;;;;;7.43;4.10;;;6.10;46.80;;;;;;5080292;28;20266;-77
2020/12/03 12:33:30;;;;;;;6.10;3.88;;;6.30;47.00;;;;;;5082618;28;20215;-78
2020/12/03 12:35:56;;;;;;;6.05;4.55;;;6.50;46.50;;;;;;5082500;28;20221;-78
2020/12/03 12:38:23;;;;;;;7.03;4.32;;;6.60;46.00;;;;;;5086344;28;20288;-77
2020/12/03 12:40:49;;;;;;;3.92;3.55;;;6.70;44.90;;;;;;5079601;22;20228;-79
2020/12/03 12:43:16;;;;;;;6.57;4.05;;;6.70;44.70;;;;;;5047541;28;20212;-78
2020/12/03 12:45:42;;;;;;;4.53;3.72;;;6.60;44.80;;;;;;5045596;28;20235;-80
2020/12/03 12:48:09;;;;;;;3.65;3.28;;;6.30;45.30;;;;;;5044569;28;20213;-79
2020/12/03 12:50:36;;;;;;;4.35;3.75;;;6.30;45.00;;;;;;5043022;28;20225;-80
2020/12/03 12:53:02;;;;;;;6.50;3.90;;;6.30;45.90;;;;;;5045372;28;20213;-79
2020/12/03 12:55:32;;;;;;;3.50;3.13;;;6.40;45.70;;;;;;5024175;28;20209;-80
2020/12/03 12:58:09;;;;;;;8.88;4.72;;;6.60;44.40;;;;;;5044164;28;20209;-82
2020/12/03 13:00:44;;;;;;;4.07;3.67;;;6.70;44.30;;;;;;5045788;28;20222;-79
2020/12/03 13:03:14;;;;;;;7.88;3.67;;;6.70;44.30;;;;;;5026157;28;20219;-80
2020/12/03 13:05:42;;;;;;;3.67;3.20;;;6.90;43.90;;;;;;5026906;28;20572;-83
2020/12/03 13:08:08;;;;;;;4.95;3.88;;;6.90;43.30;;;;;;5023615;28;20240;-81
2020/12/03 13:10:35;;;;;;;10.82;4.97;;;6.90;43.30;;;;;;5028484;28;20234;-80
2020/12/03 13:13:01;;;;;;;5.55;3.90;;;6.60;43.20;;;;;;5028117;28;20213;-81
2020/12/03 13:15:28;;;;;;;5.88;4.20;;;6.10;45.10;;;;;;5037717;28;20239;-83